Time;durP1;ratioP1;P1;durP2;ratioP2;P2;SDS_P1;SDS_P2;PMS_P1;PMS_P2;Temp;Humidity;BMP_temperature;BMP_pressure;BME280_temperature;BME280_humidity;BME280_pressure;Samples;Min_cycle;Max_cycle;Signal;HPM_P1;HPM_P2
2021/08/31 00:02:07;;;;;;;1999.90;999.90;;;;;;;11.36;60.58;101444.00;5000375;28;100749;-76
2021/08/31 00:04:35;;;;;;;1999.90;999.90;;;;;;;11.35;60.60;101441.31;4998856;28;99804;-76
2021/08/31 00:07:04;;;;;;;1999.90;999.90;;;;;;;11.31;60.61;101442.97;4980346;28;97536;-77
2021/08/31 00:09:32;;;;;;;1999.90;999.90;;;;;;;11.26;60.69;101451.66;4992203;28;96962;-77
2021/08/31 00:11:59;;;;;;;1999.90;999.90;;;;;;;11.21;60.89;101446.22;4973862;28;99304;-77
2021/08/31 00:14:27;;;;;;;1999.90;999.90;;;;;;;11.19;60.89;101446.19;5000523;28;97291;-77
2021/08/31 00:16:55;;;;;;;1999.90;999.90;;;;;;;11.20;60.76;101455.06;4978663;28;97076;-76
2021/08/31 00:19:24;;;;;;;1999.90;999.90;;;;;;;11.18;60.66;101459.44;4976950;28;98655;-79
2021/08/31 00:21:52;;;;;;;1999.90;999.90;;;;;;;11.16;60.76;101455.81;4966688;28;99687;-76
2021/08/31 00:24:19;;;;;;;1999.90;999.90;;;;;;;11.15;60.76;101462.03;4985878;28;99531;-77
2021/08/31 00:26:47;;;;;;;1999.90;999.90;;;;;;;11.16;60.70;101461.16;4982171;28;98156;-77
2021/08/31 00:29:15;;;;;;;1999.90;999.90;;;;;;;11.12;60.72;101462.81;4970304;28;97476;-76
2021/08/31 00:31:43;;;;;;;1999.90;999.90;;;;;;;11.12;60.81;101459.28;4983733;28;98499;-76
2021/08/31 00:34:10;;;;;;;1999.90;999.90;;;;;;;11.13;60.81;101461.97;4998792;28;97930;-77
2021/08/31 00:36:39;;;;;;;1999.90;999.90;;;;;;;11.13;60.72;101461.97;4985648;28;97458;-76
2021/08/31 00:39:07;;;;;;;1999.90;999.90;;;;;;;11.13;60.74;101456.66;4997165;28;97820;-76
2021/08/31 00:41:36;;;;;;;1999.90;999.90;;;;;;;11.12;60.61;101459.28;4996873;28;100867;-77
2021/08/31 00:44:04;;;;;;;1999.90;999.90;;;;;;;11.13;60.68;101456.66;5011317;28;98661;-74
2021/08/31 00:46:32;;;;;;;1999.90;999.90;;;;;;;11.12;60.63;101462.81;4997993;28;97145;-75
2021/08/31 00:48:59;;;;;;;1999.90;999.90;;;;;;;11.10;60.55;101464.53;5000062;28;97685;-74
2021/08/31 00:51:27;;;;;;;1999.90;999.90;;;;;;;11.11;60.54;101477.00;4998769;28;97934;-75
2021/08/31 00:53:57;;;;;;;1999.90;999.90;;;;;;;11.11;60.49;101473.44;4999966;28;99868;-75
2021/08/31 00:56:25;;;;;;;1999.90;999.90;;;;;;;11.10;60.67;101487.63;5001445;28;97366;-75
2021/08/31 00:58:54;;;;;;;1999.90;999.90;;;;;;;11.09;60.44;101477.81;4998899;28;98317;-74
2021/08/31 01:01:22;;;;;;;1999.90;999.90;;;;;;;11.07;60.55;101475.09;4999191;28;97928;-75
2021/08/31 01:03:50;;;;;;;1999.90;999.90;;;;;;;11.06;60.79;101473.31;4999077;28;99111;-75
2021/08/31 01:06:18;;;;;;;1999.90;999.90;;;;;;;11.09;60.42;101475.16;4995294;28;96727;-75
2021/08/31 01:08:46;;;;;;;1999.90;999.90;;;;;;;11.10;60.32;101468.97;4998910;28;97236;-75
2021/08/31 01:11:16;;;;;;;1999.90;999.90;;;;;;;11.09;60.41;101467.16;4996507;28;97748;-75
2021/08/31 01:13:43;;;;;;;1999.90;999.90;;;;;;;11.02;60.61;101473.16;4981598;28;99841;-74
2021/08/31 01:16:11;;;;;;;1999.90;999.90;;;;;;;10.97;60.64;101475.69;4999848;28;97531;-75
2021/08/31 01:18:39;;;;;;;1999.90;999.90;;;;;;;10.98;60.52;101477.50;4982431;28;97714;-75
2021/08/31 01:21:07;;;;;;;1999.90;999.90;;;;;;;10.97;60.48;101485.44;5000380;28;98406;-76
2021/08/31 01:23:35;;;;;;;1999.90;999.90;;;;;;;10.95;60.61;101481.81;4997389;28;100832;-75
2021/08/31 01:26:05;;;;;;;1999.90;999.90;;;;;;;10.95;60.60;101484.50;5000091;28;96812;-73
2021/08/31 01:28:35;;;;;;;1999.90;999.90;;;;;;;10.93;60.69;101478.22;4996008;28;97569;-76
2021/08/31 01:31:04;;;;;;;1999.90;999.90;;;;;;;10.92;60.46;101481.75;4997605;28;98479;-75
2021/08/31 01:33:33;;;;;;;1999.90;999.90;;;;;;;10.90;60.70;101483.44;4997867;28;97710;-75
2021/08/31 01:36:14;;;;;;;1999.90;999.90;;;;;;;10.87;60.48;101491.31;4981649;28;96949;-75
2021/08/31 01:38:42;;;;;;;1999.90;999.90;;;;;;;10.87;60.49;101489.56;4997558;28;98022;-75
2021/08/31 01:41:12;;;;;;;1999.90;999.90;;;;;;;10.86;60.56;101485.13;4998968;28;98774;-75
2021/08/31 01:43:39;;;;;;;1999.90;999.90;;;;;;;10.86;60.62;101486.88;4978785;28;97679;-75
2021/08/31 01:46:07;;;;;;;1999.90;999.90;;;;;;;10.84;60.37;101478.84;4999465;28;98435;-76
2021/08/31 01:48:35;;;;;;;1999.90;999.90;;;;;;;10.84;60.46;101478.84;4996949;28;97328;-75
2021/08/31 01:51:03;;;;;;;1999.90;999.90;;;;;;;10.82;60.56;101484.97;5012098;28;99241;-75
2021/08/31 01:53:31;;;;;;;1999.90;999.90;;;;;;;10.82;60.60;101475.22;4979296;28;100659;-75
2021/08/31 01:55:59;;;;;;;1999.90;999.90;;;;;;;10.82;60.46;101479.63;4998195;28;97080;-75
2021/08/31 01:58:29;;;;;;;1999.90;999.90;;;;;;;10.83;60.33;101484.13;4997833;28;97241;-75
2021/08/31 02:00:57;;;;;;;1999.90;999.90;;;;;;;10.82;60.52;101487.63;4989793;28;98718;-75
2021/08/31 02:03:25;;;;;;;1999.90;999.90;;;;;;;10.81;60.63;101483.16;4979380;28;98105;-75
2021/08/31 02:05:53;;;;;;;1999.90;999.90;;;;;;;10.79;60.55;101480.47;5008308;28;97648;-75
2021/08/31 02:08:21;;;;;;;1999.90;999.90;;;;;;;10.79;60.46;101479.56;4997403;28;97157;-75
2021/08/31 02:10:48;;;;;;;1999.90;999.90;;;;;;;10.80;60.51;101478.69;4992499;28;100577;-75
2021/08/31 02:13:16;;;;;;;1999.90;999.90;;;;;;;10.82;60.48;101482.31;5010420;28;97733;-76
2021/08/31 02:15:45;;;;;;;1999.90;999.90;;;;;;;10.84;60.39;101476.19;4996980;28;97668;-76
2021/08/31 02:18:13;;;;;;;1999.90;999.90;;;;;;;10.86;60.27;101476.22;4995967;28;98078;-75
2021/08/31 02:20:41;;;;;;;1999.90;999.90;;;;;;;10.84;60.57;101468.19;4998197;28;99752;-75
2021/08/31 02:23:08;;;;;;;1999.90;999.90;;;;;;;10.88;60.30;101469.19;4997454;28;99165;-75
2021/08/31 02:25:36;;;;;;;1999.90;999.90;;;;;;;10.90;60.08;101473.69;4999185;28;96900;-75
2021/08/31 02:28:04;;;;;;;1999.90;999.90;;;;;;;10.93;59.99;101475.53;4997045;28;98816;-75
2021/08/31 02:30:32;;;;;;;1999.90;999.90;;;;;;;10.94;60.10;101469.38;4997173;28;99328;-75
2021/08/31 02:33:02;;;;;;;1999.90;999.90;;;;;;;10.96;60.04;101467.63;4997091;28;98615;-76
2021/08/31 02:35:31;;;;;;;1999.90;999.90;;;;;;;10.95;59.92;101466.75;5007411;28;97902;-75
2021/08/31 02:38:00;;;;;;;1999.90;999.90;;;;;;;10.92;60.18;101473.75;4998670;28;97697;-76
2021/08/31 02:40:27;;;;;;;1999.90;999.90;;;;;;;10.92;60.14;101468.44;4980798;28;100704;-75
2021/08/31 02:42:55;;;;;;;1999.90;999.90;;;;;;;10.92;60.29;101466.66;4998150;28;97546;-76
2021/08/31 02:45:23;;;;;;;1999.90;999.90;;;;;;;10.93;60.20;101464.91;4996961;28;97735;-76
2021/08/31 02:47:50;;;;;;;1999.90;999.90;;;;;;;10.90;60.20;101465.69;5000619;28;97902;-75
2021/08/31 02:50:20;;;;;;;1999.90;999.90;;;;;;;10.91;59.99;101472.84;4999454;28;98797;-75
2021/08/31 02:52:48;;;;;;;1999.90;999.90;;;;;;;10.90;60.12;101472.81;4996378;28;99823;-75
2021/08/31 02:55:16;;;;;;;1999.90;999.90;;;;;;;10.89;60.22;101466.56;4999069;28;97169;-76
2021/08/31 02:57:44;;;;;;;1999.90;999.90;;;;;;;10.89;60.23;101460.31;4998358;28;97733;-75
2021/08/31 03:00:18;;;;;;;1999.90;999.90;;;;;;;10.93;60.10;101467.56;4998151;28;97774;-75
2021/08/31 03:02:46;;;;;;;1999.90;999.90;;;;;;;10.95;60.09;101471.16;4998315;28;98075;-75
2021/08/31 03:05:14;;;;;;;1999.90;999.90;;;;;;;10.94;60.03;101470.25;4998688;28;97635;-75
2021/08/31 03:07:43;;;;;;;1999.90;999.90;;;;;;;10.94;60.00;101464.06;4979753;28;98162;-75
2021/08/31 03:10:11;;;;;;;1999.90;999.90;;;;;;;10.93;59.85;101467.56;4998424;28;98774;-75
2021/08/31 03:12:39;;;;;;;1999.90;999.90;;;;;;;10.94;60.24;101466.72;4997268;28;97971;-75
2021/08/31 03:15:07;;;;;;;1999.90;999.90;;;;;;;10.93;59.96;101470.22;5012271;28;97360;-75
2021/08/31 03:17:35;;;;;;;1999.90;999.90;;;;;;;10.92;60.14;101471.97;4996789;28;97394;-75
2021/08/31 03:20:04;;;;;;;1999.90;999.90;;;;;;;10.92;60.26;101473.75;4981072;28;100500;-75
2021/08/31 03:22:31;;;;;;;1999.90;999.90;;;;;;;10.91;60.17;101469.25;4997363;28;99222;-76
2021/08/31 03:25:01;;;;;;;1999.90;999.90;;;;;;;10.90;60.26;101463.03;4996554;28;96886;-75
2021/08/31 03:27:29;;;;;;;1999.90;999.90;;;;;;;10.90;60.19;101473.69;4996435;28;98119;-75
2021/08/31 03:29:56;;;;;;;1999.90;999.90;;;;;;;10.92;60.39;101476.41;5011590;28;97940;-74
2021/08/31 03:32:24;;;;;;;1999.90;999.90;;;;;;;10.94;60.05;101477.38;4998919;28;98851;-75
2021/08/31 03:34:53;;;;;;;1999.90;999.90;;;;;;;10.93;60.07;101479.13;4996742;28;97911;-75
2021/08/31 03:37:20;;;;;;;1999.90;999.90;;;;;;;10.93;60.15;101478.22;4996432;28;97164;-76
2021/08/31 03:39:48;;;;;;;1999.90;999.90;;;;;;;10.93;60.20;101486.19;4998005;28;98447;-75
2021/08/31 03:42:17;;;;;;;1999.90;999.90;;;;;;;10.94;60.12;101485.34;4995176;28;97705;-75
2021/08/31 03:44:45;;;;;;;1999.90;999.90;;;;;;;10.95;60.15;101492.47;4996338;28;96987;-75
2021/08/31 03:47:13;;;;;;;1999.90;999.90;;;;;;;10.94;60.05;101496.88;4995491;28;97471;-75
2021/08/31 03:49:41;;;;;;;1999.90;999.90;;;;;;;10.95;60.12;101500.47;4996757;28;100627;-75
2021/08/31 03:52:10;;;;;;;1999.90;999.90;;;;;;;10.95;60.10;101500.47;4997219;28;98042;-75
2021/08/31 03:54:38;;;;;;;1999.90;999.90;;;;;;;10.94;60.11;101504.00;4998042;28;96820;-75
2021/08/31 03:57:06;;;;;;;1999.90;999.90;;;;;;;10.93;60.29;101503.09;4996318;28;97296;-75
2021/08/31 03:59:35;;;;;;;1999.90;999.90;;;;;;;10.93;60.34;101508.41;4979951;28;100703;-75
2021/08/31 04:02:04;;;;;;;1999.90;999.90;;;;;;;10.94;60.09;101510.22;4985358;28;98300;-75
2021/08/31 04:04:31;;;;;;;1999.90;999.90;;;;;;;10.94;60.32;101507.53;4989659;28;98221;-75
2021/08/31 04:06:59;;;;;;;1999.90;999.90;;;;;;;10.92;60.03;101505.72;4979500;28;97230;-76
2021/08/31 04:09:27;;;;;;;1999.90;999.90;;;;;;;10.86;60.18;101502.84;4992891;28;97598;-76
2021/08/31 04:11:56;;;;;;;1999.90;999.90;;;;;;;10.84;60.19;101505.47;4974076;28;99844;-76
2021/08/31 04:14:24;;;;;;;1999.90;999.90;;;;;;;10.84;60.22;101505.47;4993467;28;97163;-76
2021/08/31 04:16:53;;;;;;;1999.90;999.90;;;;;;;10.83;60.19;101485.00;4993092;28;97935;-76
2021/08/31 04:19:20;;;;;;;1999.90;999.90;;;;;;;10.82;60.22;101490.28;4995270;28;98799;-75
2021/08/31 04:21:48;;;;;;;1999.90;999.90;;;;;;;10.79;60.30;101483.13;4994952;28;97560;-74
2021/08/31 04:24:16;;;;;;;1999.90;999.90;;;;;;;10.80;60.27;101492.00;4977090;28;97046;-76
2021/08/31 04:26:48;;;;;;;1999.90;999.90;;;;;;;10.82;60.19;101495.63;4995900;28;97655;-74
2021/08/31 04:29:16;;;;;;;1999.90;999.90;;;;;;;10.78;60.13;101489.28;4997017;28;97698;-74
2021/08/31 04:31:44;;;;;;;1999.90;999.90;;;;;;;10.71;60.36;101489.97;5006584;28;100100;-74
2021/08/31 04:34:13;;;;;;;1999.90;999.90;;;;;;;10.61;60.30;101495.81;4999193;28;98534;-74
2021/08/31 04:36:41;;;;;;;1999.90;999.90;;;;;;;10.54;60.52;101488.50;4997186;28;97853;-74
2021/08/31 04:39:08;;;;;;;1999.90;999.90;;;;;;;10.55;60.69;101500.06;4998488;28;100566;-71
2021/08/31 04:41:37;;;;;;;1999.90;999.90;;;;;;;10.46;60.79;101490.03;4993491;28;97510;-74
2021/08/31 04:44:05;;;;;;;1999.90;999.90;;;;;;;10.43;60.81;101505.88;4977877;28;97717;-73
2021/08/31 04:46:33;;;;;;;1999.90;999.90;;;;;;;10.37;60.98;101500.34;4999665;28;97507;-74
2021/08/31 04:49:01;;;;;;;1999.90;999.90;;;;;;;10.27;61.19;101498.19;4979629;28;100265;-74
2021/08/31 04:51:30;;;;;;;1999.90;999.90;;;;;;;10.23;61.32;101507.84;4996938;28;100391;-74
2021/08/31 04:53:58;;;;;;;1999.90;999.90;;;;;;;10.17;61.53;101501.41;4999785;28;98874;-74
2021/08/31 04:56:26;;;;;;;1999.90;999.90;;;;;;;10.12;61.79;101495.94;5000650;28;96829;-73
2021/08/31 04:58:55;;;;;;;1999.90;999.90;;;;;;;10.10;61.55;101510.91;5002276;28;99715;-75
2021/08/31 05:01:23;;;;;;;1999.90;999.90;;;;;;;10.11;61.75;101495.88;4998352;28;97674;-75
2021/08/31 05:03:51;;;;;;;1999.90;999.90;;;;;;;10.10;61.71;101500.28;5002969;28;97211;-75
2021/08/31 05:06:19;;;;;;;1999.90;999.90;;;;;;;10.12;61.70;101503.00;4998070;28;98017;-74
2021/08/31 05:08:48;;;;;;;1999.90;999.90;;;;;;;10.12;61.69;101505.66;4998778;28;100355;-74
2021/08/31 05:11:16;;;;;;;1999.90;999.90;;;;;;;10.16;61.59;101513.81;4999225;28;99228;-76
2021/08/31 05:13:44;;;;;;;1999.90;999.90;;;;;;;10.19;61.73;101515.69;4999823;28;99587;-75
2021/08/31 05:16:15;;;;;;;1999.90;999.90;;;;;;;10.20;61.64;101507.75;5001200;28;97347;-74
2021/08/31 05:18:43;;;;;;;1999.90;999.90;;;;;;;10.21;61.75;101509.53;4997427;28;97874;-74
2021/08/31 05:21:11;;;;;;;1999.90;999.90;;;;;;;10.23;61.85;101517.56;5000430;28;98203;-75
2021/08/31 05:23:39;;;;;;;1999.90;999.90;;;;;;;10.28;61.80;101509.75;4998390;28;97467;-76
2021/08/31 05:26:08;;;;;;;1999.90;999.90;;;;;;;10.32;61.61;101519.66;4980929;28;96717;-76
2021/08/31 05:28:36;;;;;;;1999.90;999.90;;;;;;;10.37;61.54;101518.97;4998167;28;97863;-76
2021/08/31 05:31:03;;;;;;;1999.90;999.90;;;;;;;10.43;61.43;101516.50;4997657;28;99397;-76
2021/08/31 05:33:31;;;;;;;1999.90;999.90;;;;;;;10.46;61.42;101521.97;4999025;28;96865;-76
2021/08/31 05:36:00;;;;;;;1999.90;999.90;;;;;;;10.48;61.36;101525.56;4997982;28;97209;-76
2021/08/31 05:38:27;;;;;;;1999.90;999.90;;;;;;;10.53;61.35;101533.69;4997445;28;97664;-75
2021/08/31 05:40:55;;;;;;;1999.90;999.90;;;;;;;10.59;61.10;101529.50;4997573;28;98756;-76
2021/08/31 05:43:24;;;;;;;1999.90;999.90;;;;;;;10.63;61.22;101536.69;4996320;28;97157;-75
2021/08/31 05:45:52;;;;;;;1999.90;999.90;;;;;;;10.67;61.04;101532.38;4982301;28;97474;-76
2021/08/31 05:48:20;;;;;;;1999.90;999.90;;;;;;;10.73;61.26;101527.25;4995788;28;97798;-75
2021/08/31 05:50:48;;;;;;;1999.90;999.90;;;;;;;10.76;60.98;101525.59;4981755;28;98954;-76
2021/08/31 05:53:16;;;;;;;1999.90;999.90;;;;;;;10.80;60.92;101518.63;4998813;28;98015;-76
2021/08/31 05:55:44;;;;;;;1999.90;999.90;;;;;;;10.84;60.91;101525.84;4988418;28;97932;-75
2021/08/31 05:58:12;;;;;;;1999.90;999.90;;;;;;;10.87;60.90;101528.59;4996426;28;100426;-76
2021/08/31 06:00:41;;;;;;;1999.90;999.90;;;;;;;10.90;60.87;101523.41;4994821;28;99634;-76
2021/08/31 06:03:08;;;;;;;1999.90;999.90;;;;;;;10.91;60.67;101526.09;4996756;28;96918;-73
2021/08/31 06:05:37;;;;;;;1999.90;999.90;;;;;;;10.92;60.72;101532.34;4998183;28;97688;-81
2021/08/31 06:08:05;;;;;;;1999.90;999.90;;;;;;;10.95;60.73;101529.75;4998726;28;99335;-76
2021/08/31 06:10:34;;;;;;;1999.90;999.90;;;;;;;10.97;60.77;101518.31;4990015;28;97874;-75
2021/08/31 06:13:02;;;;;;;1999.90;999.90;;;;;;;10.96;60.90;101520.91;5002012;28;97883;-75
2021/08/31 06:15:30;;;;;;;1999.90;999.90;;;;;;;10.98;60.69;101529.84;4967220;28;96887;-76
2021/08/31 06:17:59;;;;;;;1999.90;999.90;;;;;;;11.00;60.74;101529.03;4974126;28;100894;-75
2021/08/31 06:20:31;;;;;;;1999.90;999.90;;;;;;;11.03;60.72;101538.91;4998924;28;97952;-75
2021/08/31 06:22:59;;;;;;;1999.90;999.90;;;;;;;11.04;60.77;101535.38;4979695;28;97392;-74
2021/08/31 06:25:27;;;;;;;1999.90;999.90;;;;;;;11.05;60.91;101537.16;4991694;28;96953;-76
2021/08/31 06:27:54;;;;;;;1999.90;999.90;;;;;;;11.05;60.76;101539.81;4997575;28;98841;-76
2021/08/31 06:30:22;;;;;;;1999.90;999.90;;;;;;;11.04;60.73;101536.28;4995619;28;98912;-76
2021/08/31 06:32:50;;;;;;;1999.90;999.90;;;;;;;11.05;60.90;101537.16;4994647;28;96935;-76
2021/08/31 06:35:19;;;;;;;1999.90;999.90;;;;;;;11.06;60.76;101533.66;4978899;28;97392;-76
2021/08/31 06:37:47;;;;;;;1999.90;999.90;;;;;;;11.08;60.63;101542.59;4980803;28;99457;-76
2021/08/31 06:40:15;;;;;;;1999.90;999.90;;;;;;;11.09;60.62;101531.09;4980761;28;99045;-75
2021/08/31 06:42:43;;;;;;;1999.90;999.90;;;;;;;11.09;60.90;101540.00;4997721;28;96772;-76
2021/08/31 06:45:11;;;;;;;1999.90;999.90;;;;;;;11.10;60.73;101536.44;4997352;28;98384;-75
2021/08/31 06:47:39;;;;;;;1999.90;999.90;;;;;;;11.14;60.70;101529.50;4997304;28;98879;-76
2021/08/31 06:50:13;;;;;;;1999.90;999.90;;;;;;;11.14;60.92;101527.72;4996884;28;97562;-76
2021/08/31 06:52:42;;;;;;;1999.90;999.90;;;;;;;11.15;60.50;101533.94;4997374;28;97031;-75
2021/08/31 06:55:10;;;;;;;1999.90;999.90;;;;;;;11.17;60.74;101526.91;4995182;28;97133;-75
2021/08/31 06:57:38;;;;;;;1999.90;999.90;;;;;;;11.17;60.71;101529.56;4992814;28;97790;-76
2021/08/31 07:00:08;;;;;;;1999.90;999.90;;;;;;;11.19;60.69;101530.53;4977159;28;100554;-76
2021/08/31 07:02:36;;;;;;;1999.90;999.90;;;;;;;11.20;60.44;101550.97;4989290;28;97991;-76
2021/08/31 07:05:05;;;;;;;1999.90;999.90;;;;;;;11.25;60.57;101551.13;4980990;28;98549;-77
2021/08/31 07:07:33;;;;;;;1999.90;999.90;;;;;;;11.28;60.46;101551.19;4973699;28;97936;-77
2021/08/31 07:10:02;;;;;;;1999.90;999.90;;;;;;;11.28;60.48;101546.78;4979175;28;97735;-77
2021/08/31 07:12:30;;;;;;;1999.90;999.90;;;;;;;11.33;60.61;101555.84;4976171;28;98272;-75
2021/08/31 07:14:58;;;;;;;1999.90;999.90;;;;;;;11.33;60.36;101547.84;4978856;28;96976;-76
2021/08/31 07:17:27;;;;;;;1999.90;999.90;;;;;;;11.36;60.41;101555.94;4978167;28;98235;-76
2021/08/31 07:19:55;;;;;;;1999.90;999.90;;;;;;;11.36;60.40;101557.72;4964187;28;99531;-78
2021/08/31 07:22:22;;;;;;;1999.90;999.90;;;;;;;11.37;60.38;101554.19;4980092;28;97465;-76
2021/08/31 07:24:50;;;;;;;1999.90;999.90;;;;;;;11.41;60.44;101566.75;4995447;28;98294;-76
2021/08/31 07:27:20;;;;;;;1999.90;999.90;;;;;;;11.41;60.33;101565.00;4961646;28;99360;-76
2021/08/31 07:29:47;;;;;;;1999.90;999.90;;;;;;;11.44;60.41;101575.72;4981578;28;98331;-77
2021/08/31 07:32:16;;;;;;;1999.90;999.90;;;;;;;11.44;60.29;101565.06;4966252;28;97369;-77
2021/08/31 07:34:44;;;;;;;1999.90;999.90;;;;;;;11.46;60.54;101568.69;4982211;28;98122;-78
2021/08/31 07:37:12;;;;;;;1999.90;999.90;;;;;;;11.48;60.29;101566.97;4961338;28;99709;-78
2021/08/31 07:39:42;;;;;;;1999.90;999.90;;;;;;;11.50;60.27;101565.28;4966660;28;99687;-79
2021/08/31 07:42:14;;;;;;;1999.90;999.90;;;;;;;11.53;60.16;101565.34;4981158;28;97469;-77
2021/08/31 07:48:44;;;;;;;1999.90;999.90;;;;;;;11.56;60.22;101573.41;4955224;28;99720;-80
2021/08/31 07:51:17;;;;;;;1999.90;999.90;;;;;;;11.59;59.89;101581.53;4973519;28;99499;-78
2021/08/31 07:54:00;;;;;;;1999.90;999.90;;;;;;;11.62;60.09;101586.03;4980507;28;98127;-78
2021/08/31 07:59:56;;;;;;;1999.90;999.90;;;;;;;11.68;59.86;101594.22;4971946;28;98928;-78
2021/08/31 08:07:32;;;;;;;1999.90;999.90;;;;;;;11.79;59.67;101596.34;4948580;22;97881;-78
2021/08/31 08:10:00;;;;;;;1999.90;999.90;;;;;;;11.85;59.72;101591.16;5026552;27;97785;-78
2021/08/31 08:12:28;;;;;;;1999.90;999.90;;;;;;;11.90;59.53;101600.22;5041155;27;99354;-77
2021/08/31 08:14:56;;;;;;;1999.90;999.90;;;;;;;11.94;59.34;101604.78;5030849;27;97898;-78
2021/08/31 08:17:24;;;;;;;1999.90;999.90;;;;;;;11.98;59.38;101600.47;5036504;27;96994;-78
2021/08/31 08:19:53;;;;;;;1999.90;999.90;;;;;;;12.02;59.42;101600.56;5019016;27;97293;-78
2021/08/31 08:22:21;;;;;;;1999.90;999.90;;;;;;;12.07;59.33;101603.38;5035039;27;99628;-78
2021/08/31 08:24:50;;;;;;;1999.90;999.90;;;;;;;12.13;59.28;101598.19;5018493;27;99228;-77
2021/08/31 08:27:18;;;;;;;1999.90;999.90;;;;;;;12.18;59.19;101600.16;5018420;27;97025;-77
2021/08/31 08:29:46;;;;;;;1999.90;999.90;;;;;;;12.24;58.92;101601.22;5018910;27;97451;-78
2021/08/31 08:32:14;;;;;;;1999.90;999.90;;;;;;;12.28;58.79;101592.41;5035210;27;97761;-77
2021/08/31 08:34:42;;;;;;;1999.90;999.90;;;;;;;12.31;58.73;101588.06;5038001;27;98830;-76
2021/08/31 08:37:11;;;;;;;1999.90;999.90;;;;;;;12.34;58.66;101592.56;5034940;27;96968;-78
2021/08/31 08:39:40;;;;;;;1999.90;999.90;;;;;;;12.33;58.66;101590.78;5041262;27;96975;-78
2021/08/31 08:42:12;;;;;;;1999.90;999.90;;;;;;;12.36;58.55;101596.19;5043189;27;98353;-78
2021/08/31 08:44:40;;;;;;;1999.90;999.90;;;;;;;12.37;58.53;101592.66;5029847;27;100873;-78
2021/08/31 08:47:09;;;;;;;1999.90;999.90;;;;;;;12.41;58.54;101583.88;5037991;27;96692;-78
2021/08/31 08:49:37;;;;;;;1999.90;999.90;;;;;;;12.42;58.52;101596.38;5038616;27;96832;-78
2021/08/31 08:52:05;;;;;;;1999.90;999.90;;;;;;;12.42;58.47;101607.94;5023681;27;98501;-78
2021/08/31 08:54:33;;;;;;;1999.90;999.90;;;;;;;12.41;58.42;101602.56;5020951;27;99648;-78
2021/08/31 08:57:05;;;;;;;1999.90;999.90;;;;;;;12.41;58.46;101602.56;5055726;27;97180;-77
2021/08/31 08:59:36;;;;;;;1999.90;999.90;;;;;;;12.44;58.33;101610.63;5036915;27;97084;-77
2021/08/31 09:02:04;;;;;;;1999.90;999.90;;;;;;;12.45;58.22;101600.03;5017373;27;99596;-77
2021/08/31 09:04:47;;;;;;;1999.90;999.90;;;;;;;12.50;58.18;101613.47;5020629;27;99293;-77
2021/08/31 09:07:17;;;;;;;1999.90;999.90;;;;;;;12.53;58.15;101613.56;5018602;27;96824;-77
2021/08/31 09:09:45;;;;;;;1999.90;999.90;;;;;;;12.54;58.00;101607.34;5035245;27;97119;-77
2021/08/31 09:12:31;;;;;;;1999.90;999.90;;;;;;;12.57;58.03;101613.69;5038704;27;98060;-77
2021/08/31 09:15:26;;;;;;;1999.90;999.90;;;;;;;12.60;58.07;101615.53;5033223;27;97750;-76
2021/08/31 09:18:16;;;;;;;1999.90;999.90;;;;;;;12.64;57.98;101620.97;5030783;27;96799;-77
2021/08/31 09:20:57;;;;;;;1999.90;999.90;;;;;;;12.67;57.56;101609.50;5035103;27;96967;-77
2021/08/31 09:23:26;;;;;;;1999.90;999.90;;;;;;;12.68;57.76;101613.94;5022383;27;100791;-78
2021/08/31 09:25:56;;;;;;;1999.90;999.90;;;;;;;12.69;57.82;101610.44;5045347;27;99855;-79
2021/08/31 09:28:27;;;;;;;1999.90;999.90;;;;;;;12.71;57.75;101611.38;5030443;27;97030;-77
2021/08/31 09:31:00;;;;;;;1999.90;999.90;;;;;;;12.75;57.63;101614.16;5029799;27;96741;-78
2021/08/31 09:33:30;;;;;;;1999.90;999.90;;;;;;;12.79;57.55;101617.81;5024669;27;100344;-75
2021/08/31 09:36:05;;;;;;;1999.90;999.90;;;;;;;12.79;57.65;101612.47;5040871;27;98844;-75
2021/08/31 09:38:45;;;;;;;1999.90;999.90;;;;;;;12.82;57.58;101620.56;5022971;27;96671;-77
2021/08/31 09:41:36;;;;;;;1999.90;999.90;;;;;;;12.85;57.68;101613.53;5036531;27;96775;-77
2021/08/31 09:44:07;;;;;;;1999.90;999.90;;;;;;;12.88;57.46;101610.94;5022165;27;99153;-78
2021/08/31 09:46:53;;;;;;;1999.90;999.90;;;;;;;12.87;57.34;101618.91;5039688;27;98603;-75
2021/08/31 09:49:23;;;;;;;1999.90;999.90;;;;;;;12.90;57.32;101614.53;5040492;27;97028;-76
2021/08/31 09:52:04;;;;;;;1999.90;999.90;;;;;;;12.92;57.24;101617.25;5041605;27;97047;-77
2021/08/31 09:54:33;;;;;;;1999.90;999.90;;;;;;;12.94;57.33;101620.88;5049767;27;99227;-78
2021/08/31 09:57:01;;;;;;;1999.90;999.90;;;;;;;12.96;57.42;101613.78;5024603;27;97802;-77
2021/08/31 09:59:34;;;;;;;1999.90;999.90;;;;;;;13.00;57.37;101615.72;5037411;27;97993;-79
2021/08/31 10:02:04;;;;;;;1999.90;999.90;;;;;;;13.03;57.06;101619.38;5024363;27;96759;-82
2021/08/31 10:04:32;;;;;;;1999.90;999.90;;;;;;;13.05;57.18;101622.06;5038332;27;99261;-78
2021/08/31 10:07:00;;;;;;;1999.90;999.90;;;;;;;13.05;57.03;101624.75;5046371;27;99524;-81
2021/08/31 10:09:30;;;;;;;1999.90;999.90;;;;;;;13.06;57.14;101626.53;5039161;27;96850;-79
2021/08/31 10:11:59;;;;;;;1999.90;999.90;;;;;;;13.10;57.13;101620.41;5038237;27;96836;-77
2021/08/31 10:14:28;;;;;;;1999.90;999.90;;;;;;;13.10;56.86;101615.97;5019479;27;97965;-79
2021/08/31 10:16:56;;;;;;;1999.90;999.90;;;;;;;13.13;57.06;101620.47;5021707;27;101556;-78
2021/08/31 10:19:25;;;;;;;1999.90;999.90;;;;;;;13.15;56.98;101621.41;5031098;27;96984;-79
2021/08/31 10:21:54;;;;;;;1999.90;999.90;;;;;;;13.17;56.94;101614.31;5022467;27;96651;-80
2021/08/31 10:24:22;;;;;;;1999.90;999.90;;;;;;;13.23;56.88;101618.91;5020876;27;97709;-84
2021/08/31 10:26:55;;;;;;;1999.90;999.90;;;;;;;13.27;56.79;101619.03;5019786;27;98091;-79
2021/08/31 10:29:28;;;;;;;1999.90;999.90;;;;;;;13.27;54.74;101620.81;5022939;27;96904;-77
2021/08/31 10:31:58;;;;;;;1999.90;999.90;;;;;;;13.31;56.47;101617.34;5042309;27;96948;-79
2021/08/31 10:34:44;;;;;;;1999.90;999.90;;;;;;;13.34;56.24;101620.06;5022045;27;96823;-80
2021/08/31 10:37:16;;;;;;;1999.90;999.90;;;;;;;13.37;56.44;101626.38;5038123;27;100790;-80
2021/08/31 10:39:47;;;;;;;1999.90;999.90;;;;;;;13.39;56.38;101632.69;5040798;27;96814;-81
2021/08/31 10:42:41;;;;;;;1999.90;999.90;;;;;;;13.38;56.14;101630.88;5038390;27;97018;-78
2021/08/31 10:45:29;;;;;;;1999.90;999.90;;;;;;;13.39;55.09;101632.69;5034235;27;97815;-85
2021/08/31 10:47:58;;;;;;;1999.90;999.90;;;;;;;13.45;56.20;101640.84;5040503;27;98871;-77
2021/08/31 10:50:29;;;;;;;1999.90;999.90;;;;;;;13.49;56.01;101639.16;5018893;27;97297;-78
2021/08/31 10:53:08;;;;;;;1999.90;999.90;;;;;;;13.52;56.03;101644.56;5035408;27;96751;-80
2021/08/31 10:55:42;;;;;;;1999.90;999.90;;;;;;;13.52;56.03;101648.13;5057011;27;97846;-77
2021/08/31 10:58:12;;;;;;;1999.90;999.90;;;;;;;13.56;56.01;101658.03;5038802;27;97606;-76
2021/08/31 11:00:52;;;;;;;1999.90;999.90;;;;;;;13.59;55.83;101652.75;5019516;27;96888;-77
2021/08/31 11:03:34;;;;;;;1999.90;999.90;;;;;;;13.63;55.03;101651.97;5036129;27;97268;-78
2021/08/31 11:06:36;;;;;;;1999.90;999.90;;;;;;;13.68;55.60;101658.31;5038858;27;99617;-79
2021/08/31 11:09:13;;;;;;;1999.90;999.90;;;;;;;13.71;55.60;101653.06;5021796;27;102270;-81
2021/08/31 11:11:43;;;;;;;1999.90;999.90;;;;;;;13.77;55.62;101652.28;5037184;27;96849;-79